sensor_id;sensor_type;location;lat;lon;timestamp;P1;durP1;ratioP1;P2;durP2;ratioP2
11418;SDS011;32800;44.876;13.880;2023-01-25T00:01:42;13.38;;;12.00;;
11418;SDS011;32800;44.876;13.880;2023-01-25T00:04:08;12.18;;;10.88;;
11418;SDS011;32800;44.876;13.880;2023-01-25T00:06:34;12.30;;;11.07;;
11418;SDS011;32800;44.876;13.880;2023-01-25T00:08:59;12.30;;;11.10;;
11418;SDS011;32800;44.876;13.880;2023-01-25T00:11:25;13.07;;;11.77;;
11418;SDS011;32800;44.876;13.880;2023-01-25T00:13:54;12.02;;;10.82;;
11418;SDS011;32800;44.876;13.880;2023-01-25T00:16:20;12.10;;;10.90;;
11418;SDS011;32800;44.876;13.880;2023-01-25T00:18:45;12.65;;;11.38;;
11418;SDS011;32800;44.876;13.880;2023-01-25T00:21:13;11.00;;;9.90;;
11418;SDS011;32800;44.876;13.880;2023-01-25T00:23:40;11.23;;;10.23;;
11418;SDS011;32800;44.876;13.880;2023-01-25T00:26:05;12.17;;;11.00;;
11418;SDS011;32800;44.876;13.880;2023-01-25T00:28:31;11.65;;;10.40;;
11418;SDS011;32800;44.876;13.880;2023-01-25T00:31:00;12.20;;;11.00;;
11418;SDS011;32800;44.876;13.880;2023-01-25T00:33:37;10.90;;;9.88;;
11418;SDS011;32800;44.876;13.880;2023-01-25T00:39:01;10.90;;;9.87;;
11418;SDS011;32800;44.876;13.880;2023-01-25T00:41:28;11.50;;;10.30;;
11418;SDS011;32800;44.876;13.880;2023-01-25T00:43:53;11.68;;;10.48;;
11418;SDS011;32800;44.876;13.880;2023-01-25T00:46:19;10.80;;;9.70;;
11418;SDS011;32800;44.876;13.880;2023-01-25T00:48:44;11.40;;;10.20;;
11418;SDS011;32800;44.876;13.880;2023-01-25T00:51:10;11.07;;;9.98;;
11418;SDS011;32800;44.876;13.880;2023-01-25T00:53:36;10.60;;;9.60;;
11418;SDS011;32800;44.876;13.880;2023-01-25T00:56:01;10.82;;;9.82;;
11418;SDS011;32800;44.876;13.880;2023-01-25T00:58:27;10.75;;;9.75;;
11418;SDS011;32800;44.876;13.880;2023-01-25T01:00:53;10.18;;;9.18;;
11418;SDS011;32800;44.876;13.880;2023-01-25T01:03:19;10.32;;;9.32;;
11418;SDS011;32800;44.876;13.880;2023-01-25T01:05:45;11.02;;;9.88;;
11418;SDS011;32800;44.876;13.880;2023-01-25T01:08:11;9.85;;;8.85;;
11418;SDS011;32800;44.876;13.880;2023-01-25T01:10:37;10.07;;;9.17;;
11418;SDS011;32800;44.876;13.880;2023-01-25T01:13:03;10.30;;;8.65;;
11418;SDS011;32800;44.876;13.880;2023-01-25T01:15:29;10.00;;;9.00;;
11418;SDS011;32800;44.876;13.880;2023-01-25T01:17:54;10.18;;;9.18;;
11418;SDS011;32800;44.876;13.880;2023-01-25T01:20:21;9.93;;;9.00;;
11418;SDS011;32800;44.876;13.880;2023-01-25T01:22:46;10.33;;;9.33;;
11418;SDS011;32800;44.876;13.880;2023-01-25T01:25:12;10.30;;;9.30;;
11418;SDS011;32800;44.876;13.880;2023-01-25T01:27:38;9.20;;;8.30;;
11418;SDS011;32800;44.876;13.880;2023-01-25T01:30:04;10.17;;;9.17;;
11418;SDS011;32800;44.876;13.880;2023-01-25T01:32:30;9.70;;;8.80;;
11418;SDS011;32800;44.876;13.880;2023-01-25T01:34:55;11.10;;;8.60;;
11418;SDS011;32800;44.876;13.880;2023-01-25T01:37:21;9.03;;;8.23;;
11418;SDS011;32800;44.876;13.880;2023-01-25T01:39:48;10.00;;;9.00;;
11418;SDS011;32800;44.876;13.880;2023-01-25T01:42:13;9.23;;;8.37;;
11418;SDS011;32800;44.876;13.880;2023-01-25T01:44:48;9.33;;;8.43;;
11418;SDS011;32800;44.876;13.880;2023-01-25T01:47:18;9.43;;;8.53;;
11418;SDS011;32800;44.876;13.880;2023-01-25T01:49:53;8.90;;;8.03;;
11418;SDS011;32800;44.876;13.880;2023-01-25T01:52:22;9.33;;;8.43;;
11418;SDS011;32800;44.876;13.880;2023-01-25T01:54:53;8.90;;;8.00;;
11418;SDS011;32800;44.876;13.880;2023-01-25T01:57:33;8.85;;;8.00;;
11418;SDS011;32800;44.876;13.880;2023-01-25T02:00:13;8.73;;;7.83;;
11418;SDS011;32800;44.876;13.880;2023-01-25T02:02:41;9.37;;;8.33;;
11418;SDS011;32800;44.876;13.880;2023-01-25T02:05:08;9.00;;;8.13;;
11418;SDS011;32800;44.876;13.880;2023-01-25T02:07:37;8.43;;;7.63;;
11418;SDS011;32800;44.876;13.880;2023-01-25T02:10:05;8.90;;;8.00;;
11418;SDS011;32800;44.876;13.880;2023-01-25T02:12:32;8.67;;;7.87;;
11418;SDS011;32800;44.876;13.880;2023-01-25T02:14:59;8.77;;;7.97;;
11418;SDS011;32800;44.876;13.880;2023-01-25T02:17:25;8.33;;;7.53;;
11418;SDS011;32800;44.876;13.880;2023-01-25T02:25:45;7.37;;;6.70;;
11418;SDS011;32800;44.876;13.880;2023-01-25T02:28:20;7.83;;;7.13;;
11418;SDS011;32800;44.876;13.880;2023-01-25T02:30:48;8.37;;;7.57;;
11418;SDS011;32800;44.876;13.880;2023-01-25T02:33:13;7.60;;;6.87;;
11418;SDS011;32800;44.876;13.880;2023-01-25T02:38:07;7.47;;;6.77;;
11418;SDS011;32800;44.876;13.880;2023-01-25T02:40:35;8.10;;;7.30;;
11418;SDS011;32800;44.876;13.880;2023-01-25T02:43:08;7.97;;;7.27;;
11418;SDS011;32800;44.876;13.880;2023-01-25T02:45:33;7.80;;;7.00;;
11418;SDS011;32800;44.876;13.880;2023-01-25T02:47:59;7.63;;;6.93;;
11418;SDS011;32800;44.876;13.880;2023-01-25T02:50:24;7.30;;;6.60;;
11418;SDS011;32800;44.876;13.880;2023-01-25T02:52:50;7.80;;;6.97;;
11418;SDS011;32800;44.876;13.880;2023-01-25T02:55:15;7.03;;;6.43;;
11418;SDS011;32800;44.876;13.880;2023-01-25T02:57:41;6.97;;;6.27;;
11418;SDS011;32800;44.876;13.880;2023-01-25T03:00:07;7.10;;;6.40;;
11418;SDS011;32800;44.876;13.880;2023-01-25T03:02:32;8.13;;;6.20;;
11418;SDS011;32800;44.876;13.880;2023-01-25T03:04:58;7.17;;;6.47;;
11418;SDS011;32800;44.876;13.880;2023-01-25T03:07:24;6.87;;;6.27;;
11418;SDS011;32800;44.876;13.880;2023-01-25T03:09:49;6.50;;;5.90;;
11418;SDS011;32800;44.876;13.880;2023-01-25T03:12:15;6.90;;;6.20;;
11418;SDS011;32800;44.876;13.880;2023-01-25T03:14:40;7.20;;;6.50;;
11418;SDS011;32800;44.876;13.880;2023-01-25T03:17:08;6.40;;;5.80;;
11418;SDS011;32800;44.876;13.880;2023-01-25T03:19:34;6.17;;;5.57;;
11418;SDS011;32800;44.876;13.880;2023-01-25T03:21:59;6.60;;;6.00;;
11418;SDS011;32800;44.876;13.880;2023-01-25T03:24:25;6.47;;;5.87;;
11418;SDS011;32800;44.876;13.880;2023-01-25T03:26:50;6.57;;;5.97;;
11418;SDS011;32800;44.876;13.880;2023-01-25T03:29:34;6.97;;;6.37;;
11418;SDS011;32800;44.876;13.880;2023-01-25T03:32:00;6.47;;;5.87;;
11418;SDS011;32800;44.876;13.880;2023-01-25T03:34:25;6.30;;;5.70;;
11418;SDS011;32800;44.876;13.880;2023-01-25T03:36:51;6.63;;;6.03;;
11418;SDS011;32800;44.876;13.880;2023-01-25T03:39:16;6.57;;;5.93;;
11418;SDS011;32800;44.876;13.880;2023-01-25T03:41:42;6.70;;;6.10;;
11418;SDS011;32800;44.876;13.880;2023-01-25T03:44:07;6.37;;;5.77;;
11418;SDS011;32800;44.876;13.880;2023-01-25T03:46:35;7.13;;;6.43;;
11418;SDS011;32800;44.876;13.880;2023-01-25T03:49:01;6.60;;;6.00;;
11418;SDS011;32800;44.876;13.880;2023-01-25T03:51:27;6.73;;;6.13;;
11418;SDS011;32800;44.876;13.880;2023-01-25T03:53:52;6.40;;;5.80;;
11418;SDS011;32800;44.876;13.880;2023-01-25T03:56:18;6.00;;;5.50;;
11418;SDS011;32800;44.876;13.880;2023-01-25T03:58:44;6.30;;;5.70;;
11418;SDS011;32800;44.876;13.880;2023-01-25T04:01:10;6.53;;;5.93;;
11418;SDS011;32800;44.876;13.880;2023-01-25T04:03:36;6.73;;;6.03;;
11418;SDS011;32800;44.876;13.880;2023-01-25T04:06:02;6.40;;;5.80;;
11418;SDS011;32800;44.876;13.880;2023-01-25T04:08:28;6.53;;;5.93;;
11418;SDS011;32800;44.876;13.880;2023-01-25T04:10:54;6.13;;;5.57;;
11418;SDS011;32800;44.876;13.880;2023-01-25T04:13:21;6.40;;;5.80;;
11418;SDS011;32800;44.876;13.880;2023-01-25T04:15:47;6.33;;;5.73;;
11418;SDS011;32800;44.876;13.880;2023-01-25T04:18:13;5.70;;;5.20;;
11418;SDS011;32800;44.876;13.880;2023-01-25T04:20:39;6.37;;;5.77;;
11418;SDS011;32800;44.876;13.880;2023-01-25T04:23:06;6.00;;;5.40;;
11418;SDS011;32800;44.876;13.880;2023-01-25T04:25:32;6.33;;;5.73;;
11418;SDS011;32800;44.876;13.880;2023-01-25T04:27:57;5.83;;;5.33;;
11418;SDS011;32800;44.876;13.880;2023-01-25T04:30:23;5.87;;;5.30;;
11418;SDS011;32800;44.876;13.880;2023-01-25T04:32:49;5.47;;;4.97;;
11418;SDS011;32800;44.876;13.880;2023-01-25T04:35:14;5.73;;;5.23;;
11418;SDS011;32800;44.876;13.880;2023-01-25T04:37:40;5.13;;;4.73;;
11418;SDS011;32800;44.876;13.880;2023-01-25T04:40:06;5.80;;;5.20;;
11418;SDS011;32800;44.876;13.880;2023-01-25T04:42:33;5.63;;;5.17;;
11418;SDS011;32800;44.876;13.880;2023-01-25T04:44:58;5.57;;;5.07;;
11418;SDS011;32800;44.876;13.880;2023-01-25T04:47:24;5.67;;;5.17;;
11418;SDS011;32800;44.876;13.880;2023-01-25T04:49:49;6.07;;;5.47;;
11418;SDS011;32800;44.876;13.880;2023-01-25T04:52:15;5.40;;;4.90;;
11418;SDS011;32800;44.876;13.880;2023-01-25T04:54:40;5.10;;;4.60;;
11418;SDS011;32800;44.876;13.880;2023-01-25T04:57:06;5.40;;;4.90;;
11418;SDS011;32800;44.876;13.880;2023-01-25T04:59:31;5.07;;;4.37;;
11418;SDS011;32800;44.876;13.880;2023-01-25T05:01:57;5.67;;;5.17;;
11418;SDS011;32800;44.876;13.880;2023-01-25T05:04:22;5.60;;;5.10;;
11418;SDS011;32800;44.876;13.880;2023-01-25T05:06:48;5.27;;;4.77;;
11418;SDS011;32800;44.876;13.880;2023-01-25T05:09:13;5.20;;;4.70;;
11418;SDS011;32800;44.876;13.880;2023-01-25T05:11:40;4.77;;;4.37;;
11418;SDS011;32800;44.876;13.880;2023-01-25T05:14:05;5.20;;;4.73;;
11418;SDS011;32800;44.876;13.880;2023-01-25T05:16:31;5.13;;;4.73;;
11418;SDS011;32800;44.876;13.880;2023-01-25T05:18:56;4.57;;;4.17;;
11418;SDS011;32800;44.876;13.880;2023-01-25T05:21:22;4.70;;;4.30;;
11418;SDS011;32800;44.876;13.880;2023-01-25T05:24:08;5.47;;;4.97;;
11418;SDS011;32800;44.876;13.880;2023-01-25T05:26:33;4.90;;;4.50;;
11418;SDS011;32800;44.876;13.880;2023-01-25T05:29:17;4.80;;;4.37;;
11418;SDS011;32800;44.876;13.880;2023-01-25T05:31:43;4.53;;;4.13;;
11418;SDS011;32800;44.876;13.880;2023-01-25T05:34:08;4.50;;;4.10;;
11418;SDS011;32800;44.876;13.880;2023-01-25T05:36:34;5.10;;;4.60;;
11418;SDS011;32800;44.876;13.880;2023-01-25T05:38:59;4.50;;;4.10;;
11418;SDS011;32800;44.876;13.880;2023-01-25T05:41:25;5.03;;;4.53;;
11418;SDS011;32800;44.876;13.880;2023-01-25T05:43:50;4.90;;;4.43;;
11418;SDS011;32800;44.876;13.880;2023-01-25T05:46:16;4.93;;;4.53;;
11418;SDS011;32800;44.876;13.880;2023-01-25T05:48:41;4.80;;;4.40;;
11418;SDS011;32800;44.876;13.880;2023-01-25T05:51:07;4.50;;;4.10;;
11418;SDS011;32800;44.876;13.880;2023-01-25T05:53:32;4.60;;;4.20;;
11418;SDS011;32800;44.876;13.880;2023-01-25T05:56:04;5.07;;;4.60;;
11418;SDS011;32800;44.876;13.880;2023-01-25T05:58:30;4.60;;;4.20;;
11418;SDS011;32800;44.876;13.880;2023-01-25T06:00:58;4.73;;;4.33;;
11418;SDS011;32800;44.876;13.880;2023-01-25T06:03:24;4.40;;;4.00;;
11418;SDS011;32800;44.876;13.880;2023-01-25T06:05:54;5.23;;;4.13;;
11418;SDS011;32800;44.876;13.880;2023-01-25T06:08:20;8.90;;;4.23;;
11418;SDS011;32800;44.876;13.880;2023-01-25T06:10:45;4.40;;;4.00;;
11418;SDS011;32800;44.876;13.880;2023-01-25T06:13:11;4.40;;;4.00;;
11418;SDS011;32800;44.876;13.880;2023-01-25T06:15:37;3.87;;;3.47;;
11418;SDS011;32800;44.876;13.880;2023-01-25T06:18:03;4.30;;;3.90;;
11418;SDS011;32800;44.876;13.880;2023-01-25T06:20:28;4.07;;;3.57;;
11418;SDS011;32800;44.876;13.880;2023-01-25T06:22:54;3.90;;;3.50;;
11418;SDS011;32800;44.876;13.880;2023-01-25T06:25:20;3.63;;;3.30;;
11418;SDS011;32800;44.876;13.880;2023-01-25T06:27:45;3.40;;;3.10;;
11418;SDS011;32800;44.876;13.880;2023-01-25T06:30:11;4.33;;;3.93;;
11418;SDS011;32800;44.876;13.880;2023-01-25T06:32:37;4.53;;;4.07;;
11418;SDS011;32800;44.876;13.880;2023-01-25T06:35:03;4.17;;;3.67;;
11418;SDS011;32800;44.876;13.880;2023-01-25T06:37:29;4.10;;;3.70;;
11418;SDS011;32800;44.876;13.880;2023-01-25T06:39:54;4.67;;;3.73;;
11418;SDS011;32800;44.876;13.880;2023-01-25T06:42:22;3.90;;;3.60;;
11418;SDS011;32800;44.876;13.880;2023-01-25T06:44:48;4.23;;;3.30;;
11418;SDS011;32800;44.876;13.880;2023-01-25T06:47:13;4.10;;;3.20;;
11418;SDS011;32800;44.876;13.880;2023-01-25T06:49:40;4.13;;;3.50;;
11418;SDS011;32800;44.876;13.880;2023-01-25T06:52:05;3.50;;;3.20;;
11418;SDS011;32800;44.876;13.880;2023-01-25T06:54:31;4.67;;;3.10;;
11418;SDS011;32800;44.876;13.880;2023-01-25T06:56:56;3.67;;;3.37;;
11418;SDS011;32800;44.876;13.880;2023-01-25T06:59:22;4.23;;;3.37;;
11418;SDS011;32800;44.876;13.880;2023-01-25T07:01:47;3.60;;;3.30;;
11418;SDS011;32800;44.876;13.880;2023-01-25T07:04:14;3.50;;;3.20;;
11418;SDS011;32800;44.876;13.880;2023-01-25T07:06:39;3.87;;;3.33;;
11418;SDS011;32800;44.876;13.880;2023-01-25T07:09:06;4.00;;;3.60;;
11418;SDS011;32800;44.876;13.880;2023-01-25T07:11:33;4.67;;;3.50;;
11418;SDS011;32800;44.876;13.880;2023-01-25T07:13:59;3.57;;;3.27;;
11418;SDS011;32800;44.876;13.880;2023-01-25T07:16:25;3.07;;;2.87;;
11418;SDS011;32800;44.876;13.880;2023-01-25T07:18:51;3.97;;;3.43;;
11418;SDS011;32800;44.876;13.880;2023-01-25T07:21:17;4.37;;;3.10;;
11418;SDS011;32800;44.876;13.880;2023-01-25T07:23:50;3.50;;;3.20;;
11418;SDS011;32800;44.876;13.880;2023-01-25T07:26:20;4.37;;;3.70;;
11418;SDS011;32800;44.876;13.880;2023-01-25T07:28:47;4.77;;;3.70;;
11418;SDS011;32800;44.876;13.880;2023-01-25T07:31:12;3.40;;;3.10;;
11418;SDS011;32800;44.876;13.880;2023-01-25T07:33:39;3.60;;;3.30;;
11418;SDS011;32800;44.876;13.880;2023-01-25T07:36:05;4.17;;;3.40;;
11418;SDS011;32800;44.876;13.880;2023-01-25T07:38:32;3.63;;;3.33;;
11418;SDS011;32800;44.876;13.880;2023-01-25T07:40:58;3.40;;;3.10;;
11418;SDS011;32800;44.876;13.880;2023-01-25T07:43:24;3.40;;;3.07;;
11418;SDS011;32800;44.876;13.880;2023-01-25T07:45:50;3.63;;;3.30;;
11418;SDS011;32800;44.876;13.880;2023-01-25T07:48:16;3.80;;;3.50;;
11418;SDS011;32800;44.876;13.880;2023-01-25T07:50:43;3.60;;;3.30;;
11418;SDS011;32800;44.876;13.880;2023-01-25T07:53:14;3.77;;;3.37;;
11418;SDS011;32800;44.876;13.880;2023-01-25T07:55:40;4.43;;;3.27;;
11418;SDS011;32800;44.876;13.880;2023-01-25T07:58:06;3.43;;;3.13;;
11418;SDS011;32800;44.876;13.880;2023-01-25T08:00:32;3.50;;;3.20;;
11418;SDS011;32800;44.876;13.880;2023-01-25T08:02:59;3.37;;;3.07;;
11418;SDS011;32800;44.876;13.880;2023-01-25T08:05:24;3.30;;;3.00;;
11418;SDS011;32800;44.876;13.880;2023-01-25T08:07:49;3.47;;;3.17;;
11418;SDS011;32800;44.876;13.880;2023-01-25T08:10:15;3.33;;;3.03;;
11418;SDS011;32800;44.876;13.880;2023-01-25T08:12:43;3.33;;;3.03;;
11418;SDS011;32800;44.876;13.880;2023-01-25T08:15:10;3.00;;;2.80;;
11418;SDS011;32800;44.876;13.880;2023-01-25T08:17:37;2.63;;;2.43;;
11418;SDS011;32800;44.876;13.880;2023-01-25T08:20:03;4.23;;;3.40;;
11418;SDS011;32800;44.876;13.880;2023-01-25T08:22:29;3.00;;;2.70;;
11418;SDS011;32800;44.876;13.880;2023-01-25T08:24:54;3.50;;;3.20;;
11418;SDS011;32800;44.876;13.880;2023-01-25T08:27:21;3.17;;;2.87;;
11418;SDS011;32800;44.876;13.880;2023-01-25T08:29:46;3.47;;;3.00;;
11418;SDS011;32800;44.876;13.880;2023-01-25T08:32:14;3.47;;;3.17;;
11418;SDS011;32800;44.876;13.880;2023-01-25T08:34:40;3.60;;;3.30;;
11418;SDS011;32800;44.876;13.880;2023-01-25T08:37:05;3.00;;;2.70;;
11418;SDS011;32800;44.876;13.880;2023-01-25T08:39:31;3.57;;;2.90;;
11418;SDS011;32800;44.876;13.880;2023-01-25T08:41:56;3.17;;;2.87;;
11418;SDS011;32800;44.876;13.880;2023-01-25T08:44:22;4.00;;;3.60;;
11418;SDS011;32800;44.876;13.880;2023-01-25T08:46:50;2.70;;;2.50;;
11418;SDS011;32800;44.876;13.880;2023-01-25T08:49:15;3.30;;;3.00;;
11418;SDS011;32800;44.876;13.880;2023-01-25T08:51:41;3.27;;;2.97;;
11418;SDS011;32800;44.876;13.880;2023-01-25T08:54:09;2.93;;;2.73;;
11418;SDS011;32800;44.876;13.880;2023-01-25T08:56:36;3.50;;;3.20;;
11418;SDS011;32800;44.876;13.880;2023-01-25T08:59:02;4.20;;;3.03;;
11418;SDS011;32800;44.876;13.880;2023-01-25T09:01:28;3.20;;;2.90;;
11418;SDS011;32800;44.876;13.880;2023-01-25T09:03:54;2.90;;;2.70;;
11418;SDS011;32800;44.876;13.880;2023-01-25T09:06:19;3.27;;;3.03;;
11418;SDS011;32800;44.876;13.880;2023-01-25T09:08:45;3.30;;;3.00;;
11418;SDS011;32800;44.876;13.880;2023-01-25T09:11:12;3.30;;;3.00;;
11418;SDS011;32800;44.876;13.880;2023-01-25T09:13:39;2.90;;;2.60;;
11418;SDS011;32800;44.876;13.880;2023-01-25T09:16:10;3.00;;;2.70;;
11418;SDS011;32800;44.876;13.880;2023-01-25T09:18:38;2.87;;;2.67;;
11418;SDS011;32800;44.876;13.880;2023-01-25T09:21:09;3.40;;;3.10;;
11418;SDS011;32800;44.876;13.880;2023-01-25T09:23:39;3.20;;;2.90;;
11418;SDS011;32800;44.876;13.880;2023-01-25T09:26:05;3.20;;;2.90;;
11418;SDS011;32800;44.876;13.880;2023-01-25T09:28:31;3.27;;;2.97;;
11418;SDS011;32800;44.876;13.880;2023-01-25T09:31:01;2.80;;;2.60;;
11418;SDS011;32800;44.876;13.880;2023-01-25T09:33:29;2.90;;;2.67;;
11418;SDS011;32800;44.876;13.880;2023-01-25T09:35:58;3.47;;;3.17;;
11418;SDS011;32800;44.876;13.880;2023-01-25T09:38:24;3.07;;;2.83;;
11418;SDS011;32800;44.876;13.880;2023-01-25T09:54:45;3.00;;;2.80;;
11418;SDS011;32800;44.876;13.880;2023-01-25T09:57:13;3.10;;;2.80;;
11418;SDS011;32800;44.876;13.880;2023-01-25T09:59:44;2.87;;;2.63;;
11418;SDS011;32800;44.876;13.880;2023-01-25T10:04:43;2.20;;;2.00;;
11418;SDS011;32800;44.876;13.880;2023-01-25T10:07:13;2.90;;;2.57;;
11418;SDS011;32800;44.876;13.880;2023-01-25T10:09:46;2.63;;;2.43;;
11418;SDS011;32800;44.876;13.880;2023-01-25T10:12:19;3.10;;;2.80;;
11418;SDS011;32800;44.876;13.880;2023-01-25T10:14:46;2.80;;;2.60;;
11418;SDS011;32800;44.876;13.880;2023-01-25T10:17:13;2.73;;;2.53;;
11418;SDS011;32800;44.876;13.880;2023-01-25T10:23:16;3.47;;;3.17;;
11418;SDS011;32800;44.876;13.880;2023-01-25T10:25:53;3.30;;;3.00;;
11418;SDS011;32800;44.876;13.880;2023-01-25T10:28:28;2.70;;;2.50;;
11418;SDS011;32800;44.876;13.880;2023-01-25T10:31:02;3.07;;;2.63;;
11418;SDS011;32800;44.876;13.880;2023-01-25T10:33:29;2.90;;;2.70;;
11418;SDS011;32800;44.876;13.880;2023-01-25T10:35:57;3.00;;;2.70;;
11418;SDS011;32800;44.876;13.880;2023-01-25T10:38:27;3.00;;;2.70;;
11418;SDS011;32800;44.876;13.880;2023-01-25T10:41:37;2.80;;;2.60;;
11418;SDS011;32800;44.876;13.880;2023-01-25T10:43:52;2.60;;;2.40;;
11418;SDS011;32800;44.876;13.880;2023-01-25T10:46:37;2.60;;;2.40;;
11418;SDS011;32800;44.876;13.880;2023-01-25T10:51:49;3.03;;;2.83;;
11418;SDS011;32800;44.876;13.880;2023-01-25T10:54:15;2.63;;;2.43;;
11418;SDS011;32800;44.876;13.880;2023-01-25T10:56:41;3.20;;;2.73;;
11418;SDS011;32800;44.876;13.880;2023-01-25T10:59:16;2.90;;;2.70;;
11418;SDS011;32800;44.876;13.880;2023-01-25T11:01:46;2.80;;;2.60;;
11418;SDS011;32800;44.876;13.880;2023-01-25T11:06:58;2.47;;;2.27;;
11418;SDS011;32800;44.876;13.880;2023-01-25T11:11:59;2.63;;;2.43;;
11418;SDS011;32800;44.876;13.880;2023-01-25T11:14:31;2.70;;;2.50;;
11418;SDS011;32800;44.876;13.880;2023-01-25T11:16:58;2.93;;;2.70;;
11418;SDS011;32800;44.876;13.880;2023-01-25T11:21:54;3.63;;;3.10;;
11418;SDS011;32800;44.876;13.880;2023-01-25T11:24:24;2.83;;;2.50;;
11418;SDS011;32800;44.876;13.880;2023-01-25T11:29:40;2.93;;;2.60;;
11418;SDS011;32800;44.876;13.880;2023-01-25T11:32:15;2.77;;;2.57;;
11418;SDS011;32800;44.876;13.880;2023-01-25T11:34:49;2.90;;;2.70;;
11418;SDS011;32800;44.876;13.880;2023-01-25T11:37:27;2.93;;;2.70;;
11418;SDS011;32800;44.876;13.880;2023-01-25T11:40:59;3.00;;;2.70;;
11418;SDS011;32800;44.876;13.880;2023-01-25T11:45:48;2.43;;;2.23;;
11418;SDS011;32800;44.876;13.880;2023-01-25T11:48:49;3.40;;;3.00;;
11418;SDS011;32800;44.876;13.880;2023-01-25T11:57:01;2.77;;;2.57;;
11418;SDS011;32800;44.876;13.880;2023-01-25T12:19:50;2.80;;;2.60;;
11418;SDS011;32800;44.876;13.880;2023-01-25T12:26:27;3.57;;;2.57;;
11418;SDS011;32800;44.876;13.880;2023-01-25T12:33:59;2.77;;;2.57;;
11418;SDS011;32800;44.876;13.880;2023-01-25T12:36:45;2.73;;;2.53;;
11418;SDS011;32800;44.876;13.880;2023-01-25T12:39:13;2.90;;;2.70;;
11418;SDS011;32800;44.876;13.880;2023-01-25T12:41:59;3.30;;;3.00;;
11418;SDS011;32800;44.876;13.880;2023-01-25T12:44:36;2.73;;;2.53;;
11418;SDS011;32800;44.876;13.880;2023-01-25T12:47:08;2.60;;;2.40;;
11418;SDS011;32800;44.876;13.880;2023-01-25T12:52:34;2.60;;;2.40;;
11418;SDS011;32800;44.876;13.880;2023-01-25T12:55:03;3.07;;;2.77;;
11418;SDS011;32800;44.876;13.880;2023-01-25T12:57:33;3.23;;;2.73;;
11418;SDS011;32800;44.876;13.880;2023-01-25T13:08:16;3.43;;;3.13;;
11418;SDS011;32800;44.876;13.880;2023-01-25T13:10:51;3.30;;;3.00;;
11418;SDS011;32800;44.876;13.880;2023-01-25T13:13:29;3.10;;;2.80;;
11418;SDS011;32800;44.876;13.880;2023-01-25T13:15:57;3.40;;;3.10;;
11418;SDS011;32800;44.876;13.880;2023-01-25T13:19:01;3.17;;;2.87;;
11418;SDS011;32800;44.876;13.880;2023-01-25T13:24:10;3.37;;;3.07;;
11418;SDS011;32800;44.876;13.880;2023-01-25T13:26:37;3.60;;;2.90;;
11418;SDS011;32800;44.876;13.880;2023-01-25T13:32:09;3.93;;;2.90;;
11418;SDS011;32800;44.876;13.880;2023-01-25T13:39:52;3.30;;;3.00;;
11418;SDS011;32800;44.876;13.880;2023-01-25T13:42:28;3.37;;;2.90;;
11418;SDS011;32800;44.876;13.880;2023-01-25T13:45:02;4.17;;;3.23;;
11418;SDS011;32800;44.876;13.880;2023-01-25T13:47:33;4.07;;;3.40;;
11418;SDS011;32800;44.876;13.880;2023-01-25T13:52:57;4.07;;;3.50;;
11418;SDS011;32800;44.876;13.880;2023-01-25T13:55:24;3.83;;;3.50;;
11418;SDS011;32800;44.876;13.880;2023-01-25T13:57:50;4.73;;;3.60;;
11418;SDS011;32800;44.876;13.880;2023-01-25T14:00:16;4.40;;;3.90;;
11418;SDS011;32800;44.876;13.880;2023-01-25T14:02:43;6.13;;;3.50;;
11418;SDS011;32800;44.876;13.880;2023-01-25T14:05:16;4.03;;;3.03;;
11418;SDS011;32800;44.876;13.880;2023-01-25T14:07:48;5.53;;;3.83;;
11418;SDS011;32800;44.876;13.880;2023-01-25T14:10:17;4.20;;;3.80;;
11418;SDS011;32800;44.876;13.880;2023-01-25T14:12:48;5.23;;;4.07;;
11418;SDS011;32800;44.876;13.880;2023-01-25T14:20:50;5.00;;;4.30;;
11418;SDS011;32800;44.876;13.880;2023-01-25T14:23:27;3.93;;;3.40;;
11418;SDS011;32800;44.876;13.880;2023-01-25T14:25:54;4.17;;;3.73;;
11418;SDS011;32800;44.876;13.880;2023-01-25T14:28:26;4.90;;;3.67;;
11418;SDS011;32800;44.876;13.880;2023-01-25T14:30:52;4.43;;;4.03;;
11418;SDS011;32800;44.876;13.880;2023-01-25T14:33:31;5.17;;;4.40;;
11418;SDS011;32800;44.876;13.880;2023-01-25T14:36:10;5.37;;;4.30;;
11418;SDS011;32800;44.876;13.880;2023-01-25T14:38:39;4.53;;;4.13;;
11418;SDS011;32800;44.876;13.880;2023-01-25T14:43:54;4.50;;;4.10;;
11418;SDS011;32800;44.876;13.880;2023-01-25T14:46:22;5.77;;;4.10;;
11418;SDS011;32800;44.876;13.880;2023-01-25T14:49:05;6.80;;;4.43;;
11418;SDS011;32800;44.876;13.880;2023-01-25T14:54:21;5.10;;;4.50;;
11418;SDS011;32800;44.876;13.880;2023-01-25T14:56:49;4.80;;;4.30;;
11418;SDS011;32800;44.876;13.880;2023-01-25T14:59:36;4.30;;;3.83;;
11418;SDS011;32800;44.876;13.880;2023-01-25T15:04:53;4.60;;;4.13;;
11418;SDS011;32800;44.876;13.880;2023-01-25T15:07:41;6.03;;;4.27;;
11418;SDS011;32800;44.876;13.880;2023-01-25T15:13:03;6.87;;;5.37;;
11418;SDS011;32800;44.876;13.880;2023-01-25T15:21:23;5.17;;;4.67;;
11418;SDS011;32800;44.876;13.880;2023-01-25T15:23:51;5.60;;;4.80;;
11418;SDS011;32800;44.876;13.880;2023-01-25T15:26:21;5.80;;;5.10;;
11418;SDS011;32800;44.876;13.880;2023-01-25T15:28:49;7.30;;;4.60;;
11418;SDS011;32800;44.876;13.880;2023-01-25T15:31:20;5.20;;;4.70;;
11418;SDS011;32800;44.876;13.880;2023-01-25T15:33:47;5.43;;;4.90;;
11418;SDS011;32800;44.876;13.880;2023-01-25T15:36:13;7.20;;;4.80;;
11418;SDS011;32800;44.876;13.880;2023-01-25T15:38:39;8.50;;;4.60;;
11418;SDS011;32800;44.876;13.880;2023-01-25T15:41:05;5.83;;;5.23;;
11418;SDS011;32800;44.876;13.880;2023-01-25T15:43:31;5.87;;;5.27;;
11418;SDS011;32800;44.876;13.880;2023-01-25T15:45:57;6.57;;;4.80;;
11418;SDS011;32800;44.876;13.880;2023-01-25T15:50:57;7.03;;;5.57;;
11418;SDS011;32800;44.876;13.880;2023-01-25T15:53:23;5.17;;;4.67;;
11418;SDS011;32800;44.876;13.880;2023-01-25T15:55:59;6.90;;;5.70;;
11418;SDS011;32800;44.876;13.880;2023-01-25T15:58:33;7.97;;;6.20;;
11418;SDS011;32800;44.876;13.880;2023-01-25T16:01:00;7.53;;;6.10;;
11418;SDS011;32800;44.876;13.880;2023-01-25T16:03:29;6.80;;;5.80;;
11418;SDS011;32800;44.876;13.880;2023-01-25T16:05:59;6.73;;;6.07;;
11418;SDS011;32800;44.876;13.880;2023-01-25T16:08:30;8.93;;;5.93;;
11418;SDS011;32800;44.876;13.880;2023-01-25T16:10:55;7.60;;;6.20;;
11418;SDS011;32800;44.876;13.880;2023-01-25T16:13:21;7.60;;;6.77;;
11418;SDS011;32800;44.876;13.880;2023-01-25T16:15:50;6.37;;;5.70;;
11418;SDS011;32800;44.876;13.880;2023-01-25T16:18:17;6.90;;;6.07;;
11418;SDS011;32800;44.876;13.880;2023-01-25T16:20:42;8.33;;;6.30;;
11418;SDS011;32800;44.876;13.880;2023-01-25T16:23:11;7.20;;;6.30;;
11418;SDS011;32800;44.876;13.880;2023-01-25T16:25:38;8.30;;;6.73;;
11418;SDS011;32800;44.876;13.880;2023-01-25T16:28:04;7.23;;;5.93;;
11418;SDS011;32800;44.876;13.880;2023-01-25T16:30:29;8.13;;;6.40;;
11418;SDS011;32800;44.876;13.880;2023-01-25T16:32:58;10.90;;;7.40;;
11418;SDS011;32800;44.876;13.880;2023-01-25T16:35:24;7.37;;;6.33;;
11418;SDS011;32800;44.876;13.880;2023-01-25T16:37:49;8.20;;;6.30;;
11418;SDS011;32800;44.876;13.880;2023-01-25T16:40:20;8.63;;;6.67;;
11418;SDS011;32800;44.876;13.880;2023-01-25T16:42:54;7.07;;;6.33;;
11418;SDS011;32800;44.876;13.880;2023-01-25T16:45:20;7.87;;;6.67;;
11418;SDS011;32800;44.876;13.880;2023-01-25T16:47:46;6.60;;;5.90;;
11418;SDS011;32800;44.876;13.880;2023-01-25T16:50:16;7.27;;;6.37;;
11418;SDS011;32800;44.876;13.880;2023-01-25T16:52:43;7.60;;;6.50;;